sensor_id;sensor_type;location;lat;lon;timestamp;pressure;altitude;pressure_sealevel;temperature;humidity
43488;BME280;29078;41.932;25.554;2024-02-23T00:01:29;99525.84;;;10.94;58.49
43488;BME280;29078;41.932;25.554;2024-02-23T00:03:54;99521.94;;;10.90;59.14
43488;BME280;29078;41.932;25.554;2024-02-23T00:06:23;99520.47;;;10.87;59.08
43488;BME280;29078;41.932;25.554;2024-02-23T00:08:52;99520.00;;;10.83;58.35
43488;BME280;29078;41.932;25.554;2024-02-23T00:11:19;99512.16;;;10.75;59.55
43488;BME280;29078;41.932;25.554;2024-02-23T00:13:44;99515.00;;;10.74;58.83
43488;BME280;29078;41.932;25.554;2024-02-23T00:16:10;99510.88;;;10.71;59.61
43488;BME280;29078;41.932;25.554;2024-02-23T00:18:36;99507.78;;;10.68;58.72
43488;BME280;29078;41.932;25.554;2024-02-23T00:21:01;99517.25;;;10.62;59.32
43488;BME280;29078;41.932;25.554;2024-02-23T00:23:27;99516.41;;;10.62;59.66
43488;BME280;29078;41.932;25.554;2024-02-23T00:25:53;99508.84;;;10.59;59.48
43488;BME280;29078;41.932;25.554;2024-02-23T00:28:19;99504.75;;;10.56;59.10
43488;BME280;29078;41.932;25.554;2024-02-23T00:30:44;99495.38;;;10.54;59.85
43488;BME280;29078;41.932;25.554;2024-02-23T00:33:09;99494.72;;;10.52;59.46
43488;BME280;29078;41.932;25.554;2024-02-23T00:35:35;99502.38;;;10.46;60.09
43488;BME280;29078;41.932;25.554;2024-02-23T00:38:00;99491.34;;;10.43;59.42
43488;BME280;29078;41.932;25.554;2024-02-23T00:40:26;99494.16;;;10.41;59.13
43488;BME280;29078;41.932;25.554;2024-02-23T00:42:51;99486.56;;;10.38;59.26
43488;BME280;29078;41.932;25.554;2024-02-23T00:45:17;99485.94;;;10.36;60.10
43488;BME280;29078;41.932;25.554;2024-02-23T00:47:42;99489.91;;;10.32;60.30
43488;BME280;29078;41.932;25.554;2024-02-23T00:50:08;99490.09;;;10.31;59.34
43488;BME280;29078;41.932;25.554;2024-02-23T00:52:33;99492.63;;;10.24;59.15
43488;BME280;29078;41.932;25.554;2024-02-23T00:54:59;99495.44;;;10.23;60.13
43488;BME280;29078;41.932;25.554;2024-02-23T00:57:24;99492.31;;;10.19;59.52
43488;BME280;29078;41.932;25.554;2024-02-23T00:59:54;99487.38;;;10.16;60.38
43488;BME280;29078;41.932;25.554;2024-02-23T01:02:20;99491.00;;;10.15;59.71
43488;BME280;29078;41.932;25.554;2024-02-23T01:04:45;99486.91;;;10.12;60.42
43488;BME280;29078;41.932;25.554;2024-02-23T01:07:10;99483.63;;;10.10;60.47
43488;BME280;29078;41.932;25.554;2024-02-23T01:09:35;99486.63;;;10.07;61.10
43488;BME280;29078;41.932;25.554;2024-02-23T01:12:01;99494.06;;;10.04;60.31
43488;BME280;29078;41.932;25.554;2024-02-23T01:14:26;99487.50;;;10.00;60.92
43488;BME280;29078;41.932;25.554;2024-02-23T01:16:51;99485.03;;;9.98;60.15
43488;BME280;29078;41.932;25.554;2024-02-23T01:19:16;99486.22;;;9.96;60.58
43488;BME280;29078;41.932;25.554;2024-02-23T01:21:42;99479.47;;;9.93;60.72
43488;BME280;29078;41.932;25.554;2024-02-23T01:24:07;99475.03;;;9.94;60.55
43488;BME280;29078;41.932;25.554;2024-02-23T01:26:32;99465.28;;;9.94;60.87
43488;BME280;29078;41.932;25.554;2024-02-23T01:28:57;99460.84;;;9.95;59.87
43488;BME280;29078;41.932;25.554;2024-02-23T01:31:23;99461.84;;;9.94;59.95
43488;BME280;29078;41.932;25.554;2024-02-23T01:33:48;99459.53;;;9.91;60.48
43488;BME280;29078;41.932;25.554;2024-02-23T01:36:15;99460.88;;;9.86;61.31
43488;BME280;29078;41.932;25.554;2024-02-23T01:38:40;99459.44;;;9.84;59.91
43488;BME280;29078;41.932;25.554;2024-02-23T01:41:07;99451.69;;;9.82;60.32
43488;BME280;29078;41.932;25.554;2024-02-23T01:43:33;99442.66;;;9.77;60.80
43488;BME280;29078;41.932;25.554;2024-02-23T01:45:58;99437.38;;;9.77;60.27
43488;BME280;29078;41.932;25.554;2024-02-23T01:48:23;99443.00;;;9.74;60.82
43488;BME280;29078;41.932;25.554;2024-02-23T01:50:49;99432.47;;;9.74;60.90
43488;BME280;29078;41.932;25.554;2024-02-23T01:53:14;99440.19;;;9.75;60.13
43488;BME280;29078;41.932;25.554;2024-02-23T01:55:43;99434.94;;;9.75;60.19
43488;BME280;29078;41.932;25.554;2024-02-23T01:58:10;99435.75;;;9.76;60.40
43488;BME280;29078;41.932;25.554;2024-02-23T02:00:36;99431.66;;;9.73;59.91
43488;BME280;29078;41.932;25.554;2024-02-23T02:03:02;99434.16;;;9.67;60.31
43488;BME280;29078;41.932;25.554;2024-02-23T02:05:27;99441.41;;;9.65;60.06
43488;BME280;29078;41.932;25.554;2024-02-23T02:07:53;99436.47;;;9.62;60.86
43488;BME280;29078;41.932;25.554;2024-02-23T02:10:24;99435.00;;;9.59;60.60
43488;BME280;29078;41.932;25.554;2024-02-23T02:12:49;99441.44;;;9.56;61.01
43488;BME280;29078;41.932;25.554;2024-02-23T02:15:14;99435.34;;;9.56;60.71
43488;BME280;29078;41.932;25.554;2024-02-23T02:17:39;99438.00;;;9.56;60.57
43488;BME280;29078;41.932;25.554;2024-02-23T02:20:05;99434.22;;;9.50;61.40
43488;BME280;29078;41.932;25.554;2024-02-23T02:22:32;99439.50;;;9.50;60.78
43488;BME280;29078;41.932;25.554;2024-02-23T02:24:58;99438.22;;;9.46;60.88
43488;BME280;29078;41.932;25.554;2024-02-23T02:27:23;99445.13;;;9.47;60.30
43488;BME280;29078;41.932;25.554;2024-02-23T02:29:51;99436.09;;;9.42;61.02
43488;BME280;29078;41.932;25.554;2024-02-23T02:32:17;99433.81;;;9.39;61.02
43488;BME280;29078;41.932;25.554;2024-02-23T02:34:42;99435.63;;;9.38;60.69
43488;BME280;29078;41.932;25.554;2024-02-23T02:37:07;99434.81;;;9.38;60.91
43488;BME280;29078;41.932;25.554;2024-02-23T02:39:33;99428.06;;;9.35;61.14
43488;BME280;29078;41.932;25.554;2024-02-23T02:41:58;99432.50;;;9.35;60.95
43488;BME280;29078;41.932;25.554;2024-02-23T02:44:23;99430.69;;;9.35;60.59
43488;BME280;29078;41.932;25.554;2024-02-23T02:46:49;99428.41;;;9.32;61.49
43488;BME280;29078;41.932;25.554;2024-02-23T02:49:14;99427.75;;;9.30;61.69
43488;BME280;29078;41.932;25.554;2024-02-23T02:51:39;99426.78;;;9.31;61.26
43488;BME280;29078;41.932;25.554;2024-02-23T02:54:05;99430.41;;;9.30;60.61
43488;BME280;29078;41.932;25.554;2024-02-23T02:56:30;99430.91;;;9.26;61.04
43488;BME280;29078;41.932;25.554;2024-02-23T02:58:55;99435.19;;;9.27;60.41
43488;BME280;29078;41.932;25.554;2024-02-23T03:01:21;99430.09;;;9.25;61.04
43488;BME280;29078;41.932;25.554;2024-02-23T03:03:46;99435.38;;;9.25;60.66
43488;BME280;29078;41.932;25.554;2024-02-23T03:06:12;99435.72;;;9.22;60.54
43488;BME280;29078;41.932;25.554;2024-02-23T03:08:37;99434.88;;;9.21;60.61
43488;BME280;29078;41.932;25.554;2024-02-23T03:11:02;99432.59;;;9.18;61.23
43488;BME280;29078;41.932;25.554;2024-02-23T03:13:27;99434.59;;;9.16;60.81
43488;BME280;29078;41.932;25.554;2024-02-23T03:15:53;99427.19;;;9.12;61.10
43488;BME280;29078;41.932;25.554;2024-02-23T03:18:18;99425.38;;;9.12;60.94
43488;BME280;29078;41.932;25.554;2024-02-23T03:20:43;99427.19;;;9.12;61.27
43488;BME280;29078;41.932;25.554;2024-02-23T03:23:09;99428.34;;;9.09;61.17
43488;BME280;29078;41.932;25.554;2024-02-23T03:25:34;99421.63;;;9.07;61.16
43488;BME280;29078;41.932;25.554;2024-02-23T03:28:00;99418.97;;;9.07;60.90
43488;BME280;29078;41.932;25.554;2024-02-23T03:30:25;99415.34;;;9.08;60.88
43488;BME280;29078;41.932;25.554;2024-02-23T03:32:50;99422.78;;;9.04;60.96
43488;BME280;29078;41.932;25.554;2024-02-23T03:35:16;99417.50;;;9.04;60.85
43488;BME280;29078;41.932;25.554;2024-02-23T03:37:41;99417.34;;;9.06;60.76
43488;BME280;29078;41.932;25.554;2024-02-23T03:40:07;99414.53;;;9.07;60.76
43488;BME280;29078;41.932;25.554;2024-02-23T03:42:32;99422.28;;;9.09;60.39
43488;BME280;29078;41.932;25.554;2024-02-23T03:44:57;99418.97;;;9.07;60.35
43488;BME280;29078;41.932;25.554;2024-02-23T03:47:23;99424.59;;;9.04;60.64
43488;BME280;29078;41.932;25.554;2024-02-23T03:49:48;99434.47;;;9.02;60.79
43488;BME280;29078;41.932;25.554;2024-02-23T03:52:13;99430.19;;;9.01;60.93
43488;BME280;29078;41.932;25.554;2024-02-23T03:54:38;99417.69;;;9.03;60.48
43488;BME280;29078;41.932;25.554;2024-02-23T03:57:04;99421.66;;;8.99;60.60
43488;BME280;29078;41.932;25.554;2024-02-23T03:59:29;99423.28;;;9.00;60.55
43488;BME280;29078;41.932;25.554;2024-02-23T04:01:55;99426.44;;;8.95;60.44
43488;BME280;29078;41.932;25.554;2024-02-23T04:04:20;99426.09;;;8.90;60.79
43488;BME280;29078;41.932;25.554;2024-02-23T04:06:46;99423.81;;;8.87;60.43
43488;BME280;29078;41.932;25.554;2024-02-23T04:09:11;99422.50;;;8.83;60.96
43488;BME280;29078;41.932;25.554;2024-02-23T04:11:36;99435.66;;;8.83;60.90
43488;BME280;29078;41.932;25.554;2024-02-23T04:14:02;99427.13;;;8.81;60.56
43488;BME280;29078;41.932;25.554;2024-02-23T04:16:27;99430.91;;;8.78;60.60
43488;BME280;29078;41.932;25.554;2024-02-23T04:18:53;99426.31;;;8.72;60.39
43488;BME280;29078;41.932;25.554;2024-02-23T04:21:18;99426.19;;;8.66;60.14
43488;BME280;29078;41.932;25.554;2024-02-23T04:23:43;99430.47;;;8.58;60.18
43488;BME280;29078;41.932;25.554;2024-02-23T04:26:09;99418.63;;;8.54;60.10
43488;BME280;29078;41.932;25.554;2024-02-23T04:28:34;99420.13;;;8.49;60.25
43488;BME280;29078;41.932;25.554;2024-02-23T04:30:59;99415.19;;;8.46;60.20
43488;BME280;29078;41.932;25.554;2024-02-23T04:33:25;99417.34;;;8.42;60.00
43488;BME280;29078;41.932;25.554;2024-02-23T04:35:51;99415.38;;;8.36;60.47
43488;BME280;29078;41.932;25.554;2024-02-23T04:38:16;99414.88;;;8.33;60.11
43488;BME280;29078;41.932;25.554;2024-02-23T04:40:41;99417.66;;;8.31;59.91
43488;BME280;29078;41.932;25.554;2024-02-23T04:43:06;99427.22;;;8.24;60.19
43488;BME280;29078;41.932;25.554;2024-02-23T04:45:32;99434.41;;;8.14;60.07
43488;BME280;29078;41.932;25.554;2024-02-23T04:47:57;99428.66;;;8.02;60.38
43488;BME280;29078;41.932;25.554;2024-02-23T04:50:22;99424.72;;;7.82;61.02
43488;BME280;29078;41.932;25.554;2024-02-23T04:52:48;99422.25;;;7.72;61.33
43488;BME280;29078;41.932;25.554;2024-02-23T04:55:13;99429.94;;;7.65;61.33
43488;BME280;29078;41.932;25.554;2024-02-23T04:57:39;99435.69;;;7.61;61.67
43488;BME280;29078;41.932;25.554;2024-02-23T05:00:05;99438.66;;;7.58;61.90
43488;BME280;29078;41.932;25.554;2024-02-23T05:02:32;99442.75;;;7.60;60.97
43488;BME280;29078;41.932;25.554;2024-02-23T05:05:00;99449.34;;;7.64;60.77
43488;BME280;29078;41.932;25.554;2024-02-23T05:07:25;99445.56;;;7.67;60.94
43488;BME280;29078;41.932;25.554;2024-02-23T05:09:51;99458.34;;;7.62;61.08
43488;BME280;29078;41.932;25.554;2024-02-23T05:12:16;99465.75;;;7.58;60.57
43488;BME280;29078;41.932;25.554;2024-02-23T05:14:41;99464.25;;;7.56;61.04
43488;BME280;29078;41.932;25.554;2024-02-23T05:17:06;99471.31;;;7.55;60.56
43488;BME280;29078;41.932;25.554;2024-02-23T05:19:32;99468.03;;;7.53;60.46
43488;BME280;29078;41.932;25.554;2024-02-23T05:21:57;99471.13;;;7.49;60.62
43488;BME280;29078;41.932;25.554;2024-02-23T05:24:22;99471.28;;;7.47;60.62
43488;BME280;29078;41.932;25.554;2024-02-23T05:26:47;99477.69;;;7.45;60.77
43488;BME280;29078;41.932;25.554;2024-02-23T05:29:13;99479.09;;;7.31;61.38
43488;BME280;29078;41.932;25.554;2024-02-23T05:31:48;99491.53;;;7.21;61.12
43488;BME280;29078;41.932;25.554;2024-02-23T05:34:13;99484.94;;;7.17;61.45
43488;BME280;29078;41.932;25.554;2024-02-23T05:36:38;99479.53;;;7.18;61.13
43488;BME280;29078;41.932;25.554;2024-02-23T05:39:04;99483.13;;;7.17;61.61
43488;BME280;29078;41.932;25.554;2024-02-23T05:41:30;99490.19;;;7.17;60.75
43488;BME280;29078;41.932;25.554;2024-02-23T05:43:55;99487.41;;;7.18;60.93
43488;BME280;29078;41.932;25.554;2024-02-23T05:46:20;99484.31;;;7.23;61.09
43488;BME280;29078;41.932;25.554;2024-02-23T05:48:46;99493.00;;;7.23;61.18
43488;BME280;29078;41.932;25.554;2024-02-23T05:51:11;99492.03;;;7.24;61.25
43488;BME280;29078;41.932;25.554;2024-02-23T05:53:36;99485.63;;;7.27;60.39
43488;BME280;29078;41.932;25.554;2024-02-23T05:56:02;99498.63;;;7.28;60.62
43488;BME280;29078;41.932;25.554;2024-02-23T05:58:28;99490.56;;;7.30;61.65
43488;BME280;29078;41.932;25.554;2024-02-23T06:00:53;99501.09;;;7.30;61.44
43488;BME280;29078;41.932;25.554;2024-02-23T06:03:19;99499.28;;;7.30;61.60
43488;BME280;29078;41.932;25.554;2024-02-23T06:05:44;99508.13;;;7.29;61.37
43488;BME280;29078;41.932;25.554;2024-02-23T06:08:10;99510.75;;;7.29;60.99
43488;BME280;29078;41.932;25.554;2024-02-23T06:10:35;99508.81;;;7.31;61.21
43488;BME280;29078;41.932;25.554;2024-02-23T06:13:00;99515.69;;;7.32;61.53
43488;BME280;29078;41.932;25.554;2024-02-23T06:15:25;99509.97;;;7.37;61.08
43488;BME280;29078;41.932;25.554;2024-02-23T06:17:51;99516.22;;;7.36;62.01
43488;BME280;29078;41.932;25.554;2024-02-23T06:20:16;99519.81;;;7.35;61.96
43488;BME280;29078;41.932;25.554;2024-02-23T06:22:41;99520.94;;;7.32;63.01
43488;BME280;29078;41.932;25.554;2024-02-23T06:25:07;99526.53;;;7.29;63.65
43488;BME280;29078;41.932;25.554;2024-02-23T06:27:32;99520.13;;;7.32;62.58
43488;BME280;29078;41.932;25.554;2024-02-23T06:29:58;99528.34;;;7.37;62.96
43488;BME280;29078;41.932;25.554;2024-02-23T06:32:23;99528.72;;;7.42;61.82
43488;BME280;29078;41.932;25.554;2024-02-23T06:34:48;99528.41;;;7.45;63.28
43488;BME280;29078;41.932;25.554;2024-02-23T06:37:13;99525.97;;;7.52;62.60
43488;BME280;29078;41.932;25.554;2024-02-23T06:39:39;99530.59;;;7.58;63.16
43488;BME280;29078;41.932;25.554;2024-02-23T06:42:04;99523.06;;;7.63;62.06
43488;BME280;29078;41.932;25.554;2024-02-23T06:44:30;99535.88;;;7.66;62.75
43488;BME280;29078;41.932;25.554;2024-02-23T06:46:55;99535.72;;;7.68;62.64
43488;BME280;29078;41.932;25.554;2024-02-23T06:49:20;99535.41;;;7.71;63.33
43488;BME280;29078;41.932;25.554;2024-02-23T06:51:46;99539.88;;;7.78;63.27
43488;BME280;29078;41.932;25.554;2024-02-23T06:54:11;99533.97;;;7.84;63.16
43488;BME280;29078;41.932;25.554;2024-02-23T06:56:36;99536.78;;;7.91;62.67
43488;BME280;29078;41.932;25.554;2024-02-23T06:59:02;99529.22;;;7.96;62.58
43488;BME280;29078;41.932;25.554;2024-02-23T07:01:27;99516.41;;;8.01;62.91
43488;BME280;29078;41.932;25.554;2024-02-23T07:03:52;99516.75;;;8.06;64.35
43488;BME280;29078;41.932;25.554;2024-02-23T07:06:18;99513.81;;;8.17;63.55
43488;BME280;29078;41.932;25.554;2024-02-23T07:08:46;99513.84;;;8.25;62.97
43488;BME280;29078;41.932;25.554;2024-02-23T07:11:11;99504.31;;;8.33;62.97
43488;BME280;29078;41.932;25.554;2024-02-23T07:13:37;99505.66;;;8.37;63.02
43488;BME280;29078;41.932;25.554;2024-02-23T07:16:02;99506.78;;;8.42;62.84
43488;BME280;29078;41.932;25.554;2024-02-23T07:18:27;99506.13;;;8.48;63.14
43488;BME280;29078;41.932;25.554;2024-02-23T07:20:53;99497.09;;;8.51;62.38
43488;BME280;29078;41.932;25.554;2024-02-23T07:23:18;99508.59;;;8.58;62.67
43488;BME280;29078;41.932;25.554;2024-02-23T07:25:43;99512.03;;;8.67;62.75
43488;BME280;29078;41.932;25.554;2024-02-23T07:28:09;99511.03;;;8.76;63.21
43488;BME280;29078;41.932;25.554;2024-02-23T07:30:34;99497.84;;;8.84;63.02
43488;BME280;29078;41.932;25.554;2024-02-23T07:33:02;99496.19;;;8.91;62.63
43488;BME280;29078;41.932;25.554;2024-02-23T07:35:27;99492.44;;;8.94;63.76
43488;BME280;29078;41.932;25.554;2024-02-23T07:37:53;99497.88;;;8.92;62.58
43488;BME280;29078;41.932;25.554;2024-02-23T07:40:18;99506.56;;;9.01;62.49
43488;BME280;29078;41.932;25.554;2024-02-23T07:42:43;99497.66;;;9.10;62.67
43488;BME280;29078;41.932;25.554;2024-02-23T07:45:09;99505.38;;;9.11;62.70
43488;BME280;29078;41.932;25.554;2024-02-23T07:47:34;99507.50;;;9.16;61.02
43488;BME280;29078;41.932;25.554;2024-02-23T07:49:59;99499.78;;;9.14;62.25
43488;BME280;29078;41.932;25.554;2024-02-23T07:52:25;99500.91;;;9.20;61.86
43488;BME280;29078;41.932;25.554;2024-02-23T07:54:54;99519.19;;;9.21;62.34
43488;BME280;29078;41.932;25.554;2024-02-23T07:57:19;99500.41;;;9.24;61.96
43488;BME280;29078;41.932;25.554;2024-02-23T07:59:45;99505.50;;;9.26;62.70
43488;BME280;29078;41.932;25.554;2024-02-23T08:02:10;99507.75;;;9.37;62.22
43488;BME280;29078;41.932;25.554;2024-02-23T08:04:36;99505.56;;;9.49;61.65
43488;BME280;29078;41.932;25.554;2024-02-23T08:07:01;99514.09;;;9.59;61.26
43488;BME280;29078;41.932;25.554;2024-02-23T08:09:26;99508.13;;;9.65;60.56
43488;BME280;29078;41.932;25.554;2024-02-23T08:11:52;99514.06;;;9.67;62.42
43488;BME280;29078;41.932;25.554;2024-02-23T08:14:17;99517.84;;;9.73;61.11
43488;BME280;29078;41.932;25.554;2024-02-23T08:16:42;99512.84;;;9.78;62.06
43488;BME280;29078;41.932;25.554;2024-02-23T08:19:07;99513.09;;;9.91;61.14
43488;BME280;29078;41.932;25.554;2024-02-23T08:21:33;99512.34;;;10.05;61.47
43488;BME280;29078;41.932;25.554;2024-02-23T08:23:58;99514.13;;;10.13;61.87
43488;BME280;29078;41.932;25.554;2024-02-23T08:26:23;99509.47;;;10.23;61.43
43488;BME280;29078;41.932;25.554;2024-02-23T08:28:49;99507.75;;;10.30;60.70
43488;BME280;29078;41.932;25.554;2024-02-23T08:31:14;99500.44;;;10.40;60.60
43488;BME280;29078;41.932;25.554;2024-02-23T08:33:39;99518.03;;;10.48;60.24
43488;BME280;29078;41.932;25.554;2024-02-23T08:36:04;99510.41;;;10.53;59.49
43488;BME280;29078;41.932;25.554;2024-02-23T08:38:31;99510.50;;;10.60;59.19
43488;BME280;29078;41.932;25.554;2024-02-23T08:40:56;99518.34;;;10.68;60.18
43488;BME280;29078;41.932;25.554;2024-02-23T08:43:21;99510.88;;;10.71;59.65
43488;BME280;29078;41.932;25.554;2024-02-23T08:45:46;99516.81;;;10.73;59.78
43488;BME280;29078;41.932;25.554;2024-02-23T08:48:12;99509.44;;;10.83;59.42
43488;BME280;29078;41.932;25.554;2024-02-23T08:50:40;99501.72;;;10.97;59.54
43488;BME280;29078;41.932;25.554;2024-02-23T08:53:05;99504.09;;;11.06;59.46
43488;BME280;29078;41.932;25.554;2024-02-23T08:55:30;99509.59;;;11.20;58.78
43488;BME280;29078;41.932;25.554;2024-02-23T08:57:56;99501.09;;;11.24;58.62
43488;BME280;29078;41.932;25.554;2024-02-23T09:00:22;99504.00;;;11.29;58.62
43488;BME280;29078;41.932;25.554;2024-02-23T09:02:49;99503.28;;;11.35;58.55
43488;BME280;29078;41.932;25.554;2024-02-23T09:05:15;99508.00;;;11.40;58.53
43488;BME280;29078;41.932;25.554;2024-02-23T09:07:40;99504.44;;;11.48;58.32
43488;BME280;29078;41.932;25.554;2024-02-23T09:10:05;99503.91;;;11.52;58.17
43488;BME280;29078;41.932;25.554;2024-02-23T09:12:31;99503.97;;;11.59;57.83
43488;BME280;29078;41.932;25.554;2024-02-23T09:14:56;99496.13;;;11.65;58.01
43488;BME280;29078;41.932;25.554;2024-02-23T09:17:21;99489.38;;;11.77;57.95
43488;BME280;29078;41.932;25.554;2024-02-23T09:19:48;99486.41;;;11.87;57.80
43488;BME280;29078;41.932;25.554;2024-02-23T09:22:13;99405.81;;;11.47;57.20
43488;BME280;29078;41.932;25.554;2024-02-23T09:24:39;99485.19;;;12.04;57.19
43488;BME280;29078;41.932;25.554;2024-02-23T09:27:04;99493.44;;;12.16;57.03
43488;BME280;29078;41.932;25.554;2024-02-23T09:29:29;99481.72;;;12.25;56.55
43488;BME280;29078;41.932;25.554;2024-02-23T09:31:55;99477.31;;;12.32;56.82
43488;BME280;29078;41.932;25.554;2024-02-23T09:34:20;99481.84;;;12.38;56.20
43488;BME280;29078;41.932;25.554;2024-02-23T09:36:45;99478.22;;;12.46;56.11
43488;BME280;29078;41.932;25.554;2024-02-23T09:39:10;99468.94;;;12.57;56.13
43488;BME280;29078;41.932;25.554;2024-02-23T09:41:36;99465.34;;;12.64;56.27
43488;BME280;29078;41.932;25.554;2024-02-23T09:44:02;99462.16;;;12.76;55.79
43488;BME280;29078;41.932;25.554;2024-02-23T09:46:28;99460.63;;;12.88;55.81
43488;BME280;29078;41.932;25.554;2024-02-23T09:48:54;99468.59;;;12.94;55.74
43488;BME280;29078;41.932;25.554;2024-02-23T09:51:20;99465.63;;;13.11;55.79
43488;BME280;29078;41.932;25.554;2024-02-23T09:53:45;99457.16;;;13.22;55.55
43488;BME280;29078;41.932;25.554;2024-02-23T09:56:12;99463.34;;;13.35;55.15
43488;BME280;29078;41.932;25.554;2024-02-23T09:58:42;99452.00;;;13.48;54.87
43488;BME280;29078;41.932;25.554;2024-02-23T10:01:07;99451.59;;;13.58;54.63
43488;BME280;29078;41.932;25.554;2024-02-23T10:03:36;99451.44;;;13.73;54.06
43488;BME280;29078;41.932;25.554;2024-02-23T10:06:02;99452.28;;;13.86;54.32
43488;BME280;29078;41.932;25.554;2024-02-23T10:08:30;99446.19;;;13.99;53.97
43488;BME280;29078;41.932;25.554;2024-02-23T10:10:56;99434.75;;;14.12;53.74
43488;BME280;29078;41.932;25.554;2024-02-23T10:13:22;99436.84;;;14.23;52.89
43488;BME280;29078;41.932;25.554;2024-02-23T10:15:48;99433.34;;;14.36;53.01
43488;BME280;29078;41.932;25.554;2024-02-23T10:18:14;99413.97;;;14.48;52.52
43488;BME280;29078;41.932;25.554;2024-02-23T10:20:40;99418.03;;;14.57;52.52
43488;BME280;29078;41.932;25.554;2024-02-23T10:23:05;99403.31;;;14.68;52.85
43488;BME280;29078;41.932;25.554;2024-02-23T10:25:33;99398.56;;;14.83;53.08
43488;BME280;29078;41.932;25.554;2024-02-23T10:27:58;99396.72;;;14.97;52.10
43488;BME280;29078;41.932;25.554;2024-02-23T10:30:26;99406.88;;;15.13;52.47
43488;BME280;29078;41.932;25.554;2024-02-23T10:32:52;99393.53;;;15.26;52.22
43488;BME280;29078;41.932;25.554;2024-02-23T10:35:20;99391.81;;;15.39;52.06
43488;BME280;29078;41.932;25.554;2024-02-23T10:37:47;99376.59;;;15.52;51.61
43488;BME280;29078;41.932;25.554;2024-02-23T10:40:15;99373.75;;;15.61;51.18
43488;BME280;29078;41.932;25.554;2024-02-23T10:42:41;99371.03;;;15.67;51.43
43488;BME280;29078;41.932;25.554;2024-02-23T10:45:09;99367.25;;;15.81;51.36
43488;BME280;29078;41.932;25.554;2024-02-23T10:47:35;99347.69;;;15.94;51.46
43488;BME280;29078;41.932;25.554;2024-02-23T10:50:01;99357.03;;;16.03;50.85
43488;BME280;29078;41.932;25.554;2024-02-23T10:52:28;99347.75;;;16.12;50.44
43488;BME280;29078;41.932;25.554;2024-02-23T10:54:53;99344.53;;;16.04;50.61
43488;BME280;29078;41.932;25.554;2024-02-23T10:57:19;99338.94;;;16.12;49.81
43488;BME280;29078;41.932;25.554;2024-02-23T10:59:45;99334.59;;;16.17;50.20
43488;BME280;29078;41.932;25.554;2024-02-23T11:02:11;99348.44;;;16.26;49.65
43488;BME280;29078;41.932;25.554;2024-02-23T11:04:37;99324.78;;;16.36;50.04
43488;BME280;29078;41.932;25.554;2024-02-23T11:07:02;99321.41;;;16.47;49.81
43488;BME280;29078;41.932;25.554;2024-02-23T11:09:32;99323.78;;;16.74;49.55
43488;BME280;29078;41.932;25.554;2024-02-23T11:11:58;99312.78;;;17.00;49.08
43488;BME280;29078;41.932;25.554;2024-02-23T11:14:30;99305.50;;;17.26;48.33
43488;BME280;29078;41.932;25.554;2024-02-23T11:16:57;99308.44;;;17.36;47.55
43488;BME280;29078;41.932;25.554;2024-02-23T11:19:22;99297.56;;;17.49;47.39
43488;BME280;29078;41.932;25.554;2024-02-23T11:21:56;99293.22;;;17.66;46.57
43488;BME280;29078;41.932;25.554;2024-02-23T11:24:25;99294.16;;;17.72;46.32
43488;BME280;29078;41.932;25.554;2024-02-23T11:26:50;99281.84;;;17.83;46.17
43488;BME280;29078;41.932;25.554;2024-02-23T11:29:20;99284.56;;;17.94;45.77
43488;BME280;29078;41.932;25.554;2024-02-23T11:31:46;99283.97;;;18.04;44.16
43488;BME280;29078;41.932;25.554;2024-02-23T11:34:12;99272.00;;;18.06;44.33
43488;BME280;29078;41.932;25.554;2024-02-23T11:36:38;99275.13;;;18.15;44.60
43488;BME280;29078;41.932;25.554;2024-02-23T11:39:03;99265.16;;;18.10;44.04
43488;BME280;29078;41.932;25.554;2024-02-23T11:41:30;99269.34;;;17.95;44.89
43488;BME280;29078;41.932;25.554;2024-02-23T11:43:55;99264.44;;;17.80;44.13
43488;BME280;29078;41.932;25.554;2024-02-23T11:46:22;99257.44;;;17.67;44.60
43488;BME280;29078;41.932;25.554;2024-02-23T11:48:47;99249.44;;;17.67;44.26
43488;BME280;29078;41.932;25.554;2024-02-23T11:51:18;99267.78;;;17.75;44.70
43488;BME280;29078;41.932;25.554;2024-02-23T11:53:43;99256.88;;;17.77;43.65
43488;BME280;29078;41.932;25.554;2024-02-23T11:56:09;99252.22;;;17.72;43.88
43488;BME280;29078;41.932;25.554;2024-02-23T11:58:35;99253.88;;;17.73;43.44
43488;BME280;29078;41.932;25.554;2024-02-23T12:01:00;99251.41;;;17.72;44.33
43488;BME280;29078;41.932;25.554;2024-02-23T12:03:28;99265.66;;;17.66;44.12
43488;BME280;29078;41.932;25.554;2024-02-23T12:05:53;99240.00;;;17.65;44.35
43488;BME280;29078;41.932;25.554;2024-02-23T12:08:18;99240.25;;;17.63;44.08
43488;BME280;29078;41.932;25.554;2024-02-23T12:10:44;99240.25;;;17.63;44.45
43488;BME280;29078;41.932;25.554;2024-02-23T12:13:09;99234.91;;;17.63;44.20
43488;BME280;29078;41.932;25.554;2024-02-23T12:15:35;99246.63;;;17.62;44.50
43488;BME280;29078;41.932;25.554;2024-02-23T12:18:00;99236.19;;;17.61;44.53
43488;BME280;29078;41.932;25.554;2024-02-23T12:20:28;99227.94;;;17.62;44.19
43488;BME280;29078;41.932;25.554;2024-02-23T12:22:56;99217.59;;;17.66;44.57
43488;BME280;29078;41.932;25.554;2024-02-23T12:25:21;99232.59;;;17.67;43.69
43488;BME280;29078;41.932;25.554;2024-02-23T12:27:53;99249.44;;;17.67;42.33
43488;BME280;29078;41.932;25.554;2024-02-23T12:30:18;99229.25;;;17.71;43.88
43488;BME280;29078;41.932;25.554;2024-02-23T12:32:43;99232.97;;;17.70;44.01
43488;BME280;29078;41.932;25.554;2024-02-23T12:35:11;99232.38;;;17.68;44.08
43488;BME280;29078;41.932;25.554;2024-02-23T12:37:37;99222.75;;;17.67;44.14
43488;BME280;29078;41.932;25.554;2024-02-23T12:40:02;99226.47;;;17.66;44.60
43488;BME280;29078;41.932;25.554;2024-02-23T12:42:27;99231.41;;;17.63;44.54
43488;BME280;29078;41.932;25.554;2024-02-23T12:44:53;99222.00;;;17.60;44.45
43488;BME280;29078;41.932;25.554;2024-02-23T12:47:18;99223.41;;;17.63;44.56